createdAt,value
2022-10-09T00:01:14.227Z,10.45
2022-10-09T00:03:44.102Z,10.52
2022-10-09T00:06:17.685Z,11.20
2022-10-09T00:08:45.876Z,12.27
2022-10-09T00:11:16.303Z,9.48
2022-10-09T00:13:44.661Z,8.50
2022-10-09T00:16:15.453Z,9.88
2022-10-09T00:18:44.073Z,10.25
2022-10-09T00:21:21.903Z,7.00
2022-10-09T00:23:50.603Z,7.32
2022-10-09T00:26:18.969Z,10.13
2022-10-09T00:28:47.632Z,8.35
2022-10-09T00:31:17.849Z,11.23
2022-10-09T00:33:46.282Z,10.68
2022-10-09T00:36:16.347Z,10.23
2022-10-09T00:38:44.588Z,9.05
2022-10-09T00:41:16.554Z,6.63
2022-10-09T00:43:47.636Z,12.00
2022-10-09T00:46:34.764Z,10.07
2022-10-09T00:49:10.284Z,12.27
2022-10-09T00:51:38.735Z,13.55
2022-10-09T00:54:10.068Z,8.45
2022-10-09T00:56:38.223Z,14.13
2022-10-09T00:59:07.114Z,8.52
2022-10-09T01:01:36.605Z,8.95
2022-10-09T01:04:04.606Z,17.00
2022-10-09T01:06:46.850Z,9.15
2022-10-09T01:09:16.748Z,9.18
2022-10-09T01:11:52.888Z,10.93
2022-10-09T01:14:27.033Z,12.88
2022-10-09T01:17:03.694Z,9.43
2022-10-09T01:20:02.984Z,10.20
2022-10-09T01:22:42.021Z,11.38
2022-10-09T01:25:12.433Z,14.60
2022-10-09T01:27:42.405Z,9.75
2022-10-09T01:30:13.184Z,10.48
2022-10-09T01:32:44.602Z,12.65
2022-10-09T01:35:14.097Z,11.30
2022-10-09T01:37:45.377Z,13.23
2022-10-09T01:40:15.787Z,12.40
2022-10-09T01:42:47.099Z,9.40
2022-10-09T01:45:16.168Z,11.25
2022-10-09T01:47:44.430Z,9.38
2022-10-09T01:50:18.698Z,12.38
2022-10-09T01:52:50.904Z,10.75
2022-10-09T01:55:31.543Z,11.77
2022-10-09T01:58:07.494Z,11.60
2022-10-09T02:00:39.132Z,9.50
2022-10-09T02:03:12.323Z,8.50
2022-10-09T02:05:43.469Z,10.85
2022-10-09T02:08:17.384Z,9.73
2022-10-09T02:10:48.162Z,12.32
2022-10-09T02:13:18.494Z,7.10
2022-10-09T02:15:50.171Z,9.52
2022-10-09T02:18:26.737Z,14.90
2022-10-09T02:21:00.346Z,9.52
2022-10-09T02:23:29.930Z,9.38
2022-10-09T02:25:58.477Z,12.70
2022-10-09T02:28:27.973Z,10.45
2022-10-09T02:31:00.141Z,13.88
2022-10-09T02:33:31.401Z,10.55
2022-10-09T02:35:59.451Z,6.40
2022-10-09T02:38:27.624Z,9.93
2022-10-09T02:40:59.066Z,8.45
2022-10-09T02:43:28.546Z,12.10
2022-10-09T02:45:56.486Z,11.52
2022-10-09T02:48:24.510Z,12.88
2022-10-09T02:50:52.514Z,8.65
2022-10-09T02:53:20.466Z,11.07
2022-10-09T02:55:48.450Z,7.90
2022-10-09T02:58:16.403Z,11.10
2022-10-09T03:00:49.442Z,9.05
2022-10-09T03:03:17.466Z,9.05
2022-10-09T03:05:45.400Z,7.32
2022-10-09T03:08:13.369Z,8.00
2022-10-09T03:10:42.174Z,7.90
2022-10-09T03:13:10.591Z,11.73
2022-10-09T03:15:38.791Z,9.93
2022-10-09T03:18:08.217Z,4.95
2022-10-09T03:20:36.234Z,6.25
2022-10-09T03:23:04.193Z,6.45
2022-10-09T03:25:32.503Z,9.93
2022-10-09T03:28:00.543Z,9.80
2022-10-09T03:30:28.594Z,7.00
2022-10-09T03:32:56.546Z,6.78
2022-10-09T03:35:25.931Z,7.28
2022-10-09T03:37:53.845Z,6.97
2022-10-09T03:40:21.843Z,5.20
2022-10-09T03:42:50.098Z,7.65
2022-10-09T03:45:18.367Z,6.80
2022-10-09T03:47:46.332Z,7.68
2022-10-09T03:50:14.356Z,6.60
2022-10-09T03:52:43.705Z,9.73
2022-10-09T03:55:11.700Z,6.25
2022-10-09T03:57:39.690Z,4.93
2022-10-09T04:00:09.087Z,8.57
2022-10-09T04:02:37.203Z,7.35
2022-10-09T04:05:05.825Z,5.28
2022-10-09T04:07:34.494Z,6.85
2022-10-09T04:10:05.844Z,10.23
2022-10-09T04:12:33.934Z,7.13
2022-10-09T04:15:01.940Z,4.65
2022-10-09T04:17:29.994Z,5.93
2022-10-09T04:19:58.044Z,6.30
2022-10-09T04:22:26.258Z,7.65
2022-10-09T04:24:54.213Z,8.40
2022-10-09T04:27:23.554Z,7.00
2022-10-09T04:29:51.468Z,4.78
2022-10-09T04:32:19.498Z,4.55
2022-10-09T04:34:47.511Z,7.05
2022-10-09T04:37:15.463Z,6.95
2022-10-09T04:39:43.446Z,8.55
2022-10-09T04:42:11.431Z,6.10
2022-10-09T04:44:40.815Z,6.85
2022-10-09T04:47:11.260Z,9.32
2022-10-09T04:49:39.787Z,9.52
2022-10-09T04:52:07.870Z,6.10
2022-10-09T04:54:35.875Z,10.02
2022-10-09T04:57:03.903Z,4.13
2022-10-09T04:59:31.988Z,7.43
2022-10-09T05:02:01.379Z,7.93
2022-10-09T05:04:29.403Z,7.20
2022-10-09T05:06:57.429Z,8.68
2022-10-09T05:09:25.474Z,8.23
2022-10-09T05:11:53.469Z,8.52
2022-10-09T05:14:21.423Z,7.68
2022-10-09T05:17:12.482Z,8.90
2022-10-09T05:19:42.143Z,8.52
2022-10-09T05:22:10.097Z,5.18
2022-10-09T05:24:38.186Z,10.23
2022-10-09T05:27:06.162Z,7.90
2022-10-09T05:29:34.278Z,7.20
2022-10-09T05:32:02.394Z,7.35
2022-10-09T05:34:30.383Z,8.93
2022-10-09T05:36:59.756Z,5.82
2022-10-09T05:39:27.841Z,6.85
2022-10-09T05:41:55.917Z,8.98
2022-10-09T05:44:24.000Z,7.70
2022-10-09T05:46:51.945Z,6.45
2022-10-09T05:49:19.999Z,9.50
2022-10-09T05:51:50.875Z,7.07
2022-10-09T05:54:20.338Z,6.45
2022-10-09T05:56:48.604Z,7.13
2022-10-09T05:59:19.646Z,5.75
2022-10-09T06:01:50.229Z,6.43
2022-10-09T06:04:20.611Z,9.15
2022-10-09T06:06:49.552Z,7.07
2022-10-09T06:09:22.239Z,8.00
2022-10-09T06:11:50.918Z,8.70
2022-10-09T06:14:22.188Z,8.80
2022-10-09T06:16:50.665Z,9.30
2022-10-09T06:19:19.834Z,7.95
2022-10-09T06:21:49.252Z,7.20
2022-10-09T06:24:26.962Z,7.80
2022-10-09T06:26:56.945Z,8.20
2022-10-09T06:29:25.000Z,9.02
2022-10-09T06:31:53.190Z,8.82
2022-10-09T06:34:21.626Z,9.18
2022-10-09T06:36:50.106Z,6.78
2022-10-09T06:39:19.913Z,6.13
2022-10-09T06:41:47.982Z,11.60
2022-10-09T06:44:17.341Z,8.02
2022-10-09T06:46:46.619Z,9.68
2022-10-09T06:49:14.685Z,7.25
2022-10-09T06:51:42.623Z,7.65
2022-10-09T06:54:13.976Z,6.30
2022-10-09T06:56:43.451Z,8.45
2022-10-09T06:59:12.163Z,8.95
2022-10-09T07:01:40.386Z,8.45
2022-10-09T07:04:11.770Z,6.60
2022-10-09T07:06:41.960Z,6.68
2022-10-09T07:09:19.944Z,6.25
2022-10-09T07:11:58.153Z,14.35
2022-10-09T07:14:26.126Z,7.45
2022-10-09T07:17:01.051Z,5.82
2022-10-09T07:19:28.991Z,7.93
2022-10-09T07:21:59.643Z,7.47
2022-10-09T07:24:27.668Z,5.53
2022-10-09T07:26:57.422Z,7.20
2022-10-09T07:29:25.370Z,8.60
2022-10-09T07:31:53.394Z,4.95
2022-10-09T07:34:21.593Z,6.13
2022-10-09T07:36:49.586Z,4.30
2022-10-09T07:39:19.610Z,5.65
2022-10-09T07:41:47.837Z,6.30
2022-10-09T07:44:17.956Z,5.97
2022-10-09T07:46:46.397Z,4.38
2022-10-09T07:49:14.350Z,5.03
2022-10-09T07:51:42.294Z,4.90
2022-10-09T07:54:10.359Z,7.00
2022-10-09T07:56:40.822Z,5.15
2022-10-09T07:59:13.476Z,5.50
2022-10-09T08:01:46.051Z,7.15
2022-10-09T08:04:14.123Z,7.32
2022-10-09T08:06:42.058Z,5.78
2022-10-09T08:09:10.279Z,6.65
2022-10-09T08:11:40.621Z,7.28
2022-10-09T08:14:16.605Z,5.72
2022-10-09T08:16:50.749Z,6.68
2022-10-09T08:19:18.760Z,5.97
2022-10-09T08:21:58.142Z,5.65
2022-10-09T08:24:32.841Z,5.22
2022-10-09T08:27:01.048Z,5.93
2022-10-09T08:29:29.078Z,7.32
2022-10-09T08:32:01.626Z,4.50
2022-10-09T08:34:32.684Z,4.30
2022-10-09T08:37:00.792Z,4.65
2022-10-09T08:39:30.930Z,4.32
2022-10-09T08:42:03.574Z,5.53
2022-10-09T08:44:39.339Z,7.55
2022-10-09T08:47:14.588Z,3.35
2022-10-09T08:49:51.859Z,8.05
2022-10-09T08:52:34.472Z,6.47
2022-10-09T08:55:12.005Z,7.00
2022-10-09T08:57:40.984Z,4.15
2022-10-09T09:00:16.399Z,4.95
2022-10-09T09:03:20.857Z,3.60
2022-10-09T09:05:56.489Z,3.60
2022-10-09T09:08:32.692Z,3.47
2022-10-09T09:11:18.176Z,5.85
2022-10-09T09:13:58.200Z,4.60
2022-10-09T09:16:32.412Z,3.13
2022-10-09T09:19:23.137Z,3.47
2022-10-09T09:21:52.640Z,2.97
2022-10-09T09:24:23.256Z,2.13
2022-10-09T09:26:56.247Z,7.95
2022-10-09T09:29:24.934Z,5.28
2022-10-09T09:31:56.640Z,4.38
2022-10-09T09:34:31.091Z,5.55
2022-10-09T09:37:00.066Z,3.45
2022-10-09T09:42:20.065Z,3.10
2022-10-09T09:44:57.229Z,3.72
2022-10-09T09:47:31.140Z,3.35
2022-10-09T09:50:02.322Z,3.50
2022-10-09T09:52:33.243Z,5.70
2022-10-09T09:55:01.455Z,5.47
2022-10-09T09:57:34.068Z,4.03
2022-10-09T10:00:11.441Z,5.88
2022-10-09T10:02:39.413Z,4.75
2022-10-09T10:05:21.815Z,5.30
2022-10-09T10:07:51.575Z,2.88
2022-10-09T10:10:25.607Z,3.53
2022-10-09T10:12:57.283Z,4.43
2022-10-09T10:15:27.444Z,5.15
2022-10-09T10:18:03.607Z,5.30
2022-10-09T10:20:34.987Z,4.93
2022-10-09T10:23:03.027Z,4.90
2022-10-09T10:25:34.659Z,3.53
2022-10-09T10:28:12.109Z,4.43
2022-10-09T10:30:40.859Z,4.15
2022-10-09T10:33:18.620Z,5.13
2022-10-09T10:35:52.125Z,3.40
2022-10-09T10:38:25.729Z,4.28
2022-10-09T10:40:57.914Z,4.05
2022-10-09T10:43:34.347Z,3.28
2022-10-09T10:46:12.186Z,4.10
2022-10-09T10:48:42.900Z,3.45
2022-10-09T10:51:32.160Z,6.47
2022-10-09T10:54:11.877Z,3.00
2022-10-09T10:56:43.720Z,4.43
2022-10-09T10:59:27.775Z,5.63
2022-10-09T11:02:12.087Z,3.10
2022-10-09T11:04:48.455Z,3.20
2022-10-09T11:07:30.053Z,3.70
2022-10-09T11:10:07.573Z,4.65
2022-10-09T11:12:57.798Z,3.17
2022-10-09T11:15:37.742Z,4.50
2022-10-09T11:18:18.994Z,6.10
2022-10-09T11:21:19.316Z,4.63
2022-10-09T11:24:09.637Z,3.08
2022-10-09T11:26:44.312Z,3.35
2022-10-09T11:29:18.434Z,6.30
2022-10-09T11:31:51.124Z,2.78
2022-10-09T11:34:25.520Z,2.75
2022-10-09T11:36:54.343Z,2.83
2022-10-09T11:39:27.141Z,4.80
2022-10-09T11:41:56.831Z,3.10
2022-10-09T11:44:37.157Z,4.70
2022-10-09T11:47:11.680Z,4.68
2022-10-09T11:49:59.070Z,4.40
2022-10-09T11:52:37.379Z,4.75
2022-10-09T11:55:20.963Z,3.20
2022-10-09T11:57:51.206Z,5.03
2022-10-09T12:00:31.270Z,3.47
2022-10-09T12:03:02.545Z,4.38
2022-10-09T12:05:41.215Z,3.63
2022-10-09T12:08:15.425Z,3.60
2022-10-09T12:10:54.281Z,4.93
2022-10-09T12:13:32.775Z,5.20
2022-10-09T12:16:01.315Z,3.08
2022-10-09T12:18:32.268Z,4.13
2022-10-09T12:21:03.471Z,3.97
2022-10-09T12:23:36.050Z,5.47
2022-10-09T12:26:06.788Z,2.95
2022-10-09T12:28:39.496Z,3.25
2022-10-09T12:31:18.453Z,2.38
2022-10-09T12:33:50.435Z,5.90
2022-10-09T12:36:25.678Z,2.45
2022-10-09T12:38:53.679Z,3.95
2022-10-09T12:41:26.407Z,2.50
2022-10-09T12:43:56.584Z,6.50
2022-10-09T12:46:30.314Z,4.40
2022-10-09T12:48:59.707Z,3.28
2022-10-09T12:51:30.518Z,5.38
2022-10-09T12:53:58.550Z,4.93
2022-10-09T12:56:31.528Z,3.35
2022-10-09T12:59:00.730Z,6.18
2022-10-09T13:01:29.460Z,3.90
2022-10-09T13:03:59.137Z,8.23
2022-10-09T13:06:29.362Z,3.85
2022-10-09T13:09:02.737Z,5.78
2022-10-09T13:11:34.725Z,6.03
2022-10-09T13:14:02.977Z,3.92
2022-10-09T13:16:43.198Z,4.15
2022-10-09T13:19:25.889Z,3.53
2022-10-09T13:22:20.136Z,4.18
2022-10-09T13:24:51.001Z,6.22
2022-10-09T13:27:27.038Z,3.58
2022-10-09T13:29:55.508Z,7.05
2022-10-09T13:32:24.284Z,6.38
2022-10-09T13:34:55.789Z,6.20
2022-10-09T13:37:25.741Z,3.90
2022-10-09T13:39:56.431Z,5.35
2022-10-09T13:42:29.428Z,3.47
2022-10-09T13:44:57.528Z,5.18
2022-10-09T13:47:25.571Z,5.78
2022-10-09T13:49:53.617Z,4.75
2022-10-09T13:52:21.614Z,4.63
2022-10-09T13:54:51.483Z,6.05
2022-10-09T13:57:19.507Z,8.38
2022-10-09T13:59:48.935Z,5.75
2022-10-09T14:02:16.930Z,6.30
2022-10-09T14:04:44.973Z,6.18
2022-10-09T14:07:13.004Z,5.13
2022-10-09T14:09:42.800Z,5.95
2022-10-09T14:12:10.818Z,5.63
2022-10-09T14:14:38.810Z,3.60
2022-10-09T14:17:08.186Z,6.25
2022-10-09T14:19:38.586Z,4.22
2022-10-09T14:22:06.684Z,6.57
2022-10-09T14:24:34.836Z,5.72
2022-10-09T14:27:03.511Z,6.53
2022-10-09T14:29:31.806Z,6.15
2022-10-09T14:31:59.788Z,5.68
2022-10-09T14:34:29.212Z,7.35
2022-10-09T14:36:57.360Z,6.68
2022-10-09T14:39:25.352Z,5.70
2022-10-09T14:41:53.404Z,5.68
2022-10-09T14:44:21.439Z,7.53
2022-10-09T14:46:49.593Z,5.13
2022-10-09T14:49:17.627Z,8.75
2022-10-09T14:51:46.979Z,7.18
2022-10-09T14:54:15.089Z,7.95
2022-10-09T14:56:43.310Z,5.20
2022-10-09T14:59:11.303Z,10.23
2022-10-09T15:01:39.330Z,5.95
2022-10-09T15:04:07.607Z,6.18
2022-10-09T15:06:35.725Z,6.47
2022-10-09T15:09:08.786Z,8.15
2022-10-09T15:11:37.193Z,7.05
2022-10-09T15:14:06.496Z,6.53
2022-10-09T15:16:36.483Z,8.20
2022-10-09T15:19:05.693Z,5.57
2022-10-09T15:21:35.299Z,5.00
2022-10-09T15:24:06.108Z,7.20
2022-10-09T15:26:36.940Z,7.72
2022-10-09T15:29:07.541Z,5.53
2022-10-09T15:31:38.271Z,6.32
2022-10-09T15:34:08.045Z,7.38
2022-10-09T15:36:43.125Z,7.40
2022-10-09T15:39:12.619Z,5.35
2022-10-09T15:41:47.597Z,5.78
2022-10-09T15:44:17.806Z,7.70
2022-10-09T15:46:51.240Z,8.25
2022-10-09T15:49:19.828Z,8.98
2022-10-09T15:51:47.871Z,7.00
2022-10-09T15:54:17.599Z,6.93
2022-10-09T15:56:45.699Z,7.20
2022-10-09T15:59:16.697Z,5.18
2022-10-09T16:01:45.044Z,6.85
2022-10-09T16:04:15.845Z,7.45
2022-10-09T16:06:44.071Z,7.03
2022-10-09T16:09:15.088Z,6.13
2022-10-09T16:11:44.539Z,8.20
2022-10-09T16:14:13.053Z,6.93
2022-10-09T16:16:41.329Z,6.53
2022-10-09T16:19:09.404Z,4.43
2022-10-09T16:21:37.667Z,7.43
2022-10-09T16:24:07.828Z,73.25
2022-10-09T16:26:35.812Z,18.65
2022-10-09T16:29:05.298Z,17.05
2022-10-09T16:31:35.705Z,9.65
2022-10-09T16:34:05.511Z,5.85
2022-10-09T16:36:33.926Z,5.85
2022-10-09T16:39:02.003Z,7.95
2022-10-09T16:41:30.022Z,6.85
2022-10-09T16:44:01.443Z,7.38
2022-10-09T16:49:03.661Z,4.88
2022-10-09T16:51:33.939Z,6.60
2022-10-09T16:54:05.639Z,8.73
2022-10-09T16:56:36.225Z,9.18
2022-10-09T16:59:06.085Z,10.23
2022-10-09T17:01:39.314Z,15.48
2022-10-09T17:04:07.360Z,9.00
2022-10-09T17:06:35.677Z,10.50
2022-10-09T17:09:04.551Z,19.73
2022-10-09T17:11:32.736Z,15.02
2022-10-09T17:14:00.923Z,11.93
2022-10-09T17:16:31.564Z,9.05
2022-10-09T17:19:01.794Z,7.20
2022-10-09T17:21:34.152Z,8.70
2022-10-09T17:24:07.574Z,6.90
2022-10-09T17:26:38.382Z,6.25
2022-10-09T17:29:09.476Z,8.85
2022-10-09T17:31:59.037Z,9.27
2022-10-09T17:34:45.216Z,8.55
2022-10-09T17:37:15.503Z,39.47
2022-10-09T17:39:51.160Z,22.70
2022-10-09T17:42:35.716Z,11.18
2022-10-09T17:45:08.654Z,18.52
2022-10-09T17:47:44.690Z,13.48
2022-10-09T17:50:14.463Z,15.82
2022-10-09T17:52:48.935Z,10.68
2022-10-09T17:55:17.387Z,10.23
2022-10-09T17:57:45.487Z,8.82
2022-10-09T18:00:18.454Z,21.77
2022-10-09T18:02:49.364Z,54.13
2022-10-09T18:05:19.088Z,34.95
2022-10-09T18:07:47.762Z,15.88
2022-10-09T18:10:30.122Z,26.80
2022-10-09T18:13:00.015Z,41.22
2022-10-09T18:15:52.348Z,14.75
2022-10-09T18:18:22.330Z,10.02
2022-10-09T18:21:03.544Z,14.93
2022-10-09T18:23:42.953Z,17.90
2022-10-09T18:26:14.584Z,12.30
2022-10-09T18:28:44.816Z,36.90
2022-10-09T18:31:28.621Z,40.83
2022-10-09T18:33:58.417Z,28.80
2022-10-09T18:36:31.618Z,18.60
2022-10-09T18:39:01.792Z,22.52
2022-10-09T18:41:31.262Z,10.57
2022-10-09T18:44:20.877Z,11.10
2022-10-09T18:46:52.616Z,11.68
2022-10-09T18:49:37.095Z,11.15
2022-10-09T18:52:12.465Z,8.48
2022-10-09T18:54:42.207Z,11.65
2022-10-09T18:57:35.742Z,14.30
2022-10-09T19:00:02.665Z,43.03
2022-10-09T19:02:35.500Z,14.90
2022-10-09T19:05:04.003Z,60.45
2022-10-09T19:07:48.774Z,34.97
2022-10-09T19:10:17.304Z,15.93
2022-10-09T19:12:49.023Z,12.75
2022-10-09T19:15:17.412Z,15.93
2022-10-09T19:17:45.605Z,28.63
2022-10-09T19:20:13.717Z,135.13
2022-10-09T19:22:43.274Z,52.13
2022-10-09T19:25:12.000Z,49.50
2022-10-09T19:27:40.215Z,56.53
2022-10-09T19:30:11.206Z,50.47
2022-10-09T19:32:42.066Z,106.70
2022-10-09T19:35:10.508Z,30.63
2022-10-09T19:37:41.838Z,16.98
2022-10-09T19:40:11.667Z,16.05
2022-10-09T19:42:39.723Z,16.08
2022-10-09T19:45:34.106Z,35.08
2022-10-09T19:48:05.174Z,33.15
2022-10-09T19:50:36.522Z,29.45
2022-10-09T19:53:06.629Z,48.05
2022-10-09T19:56:08.060Z,44.03
2022-10-09T19:58:40.929Z,56.72
2022-10-09T20:01:10.619Z,55.13
2022-10-09T20:03:43.042Z,45.05
2022-10-09T20:06:20.556Z,31.65
2022-10-09T20:08:56.665Z,48.08
2022-10-09T20:11:29.032Z,18.83
2022-10-09T20:14:05.788Z,20.65
2022-10-09T20:16:38.039Z,22.67
2022-10-09T20:19:06.908Z,21.05
2022-10-09T20:21:38.791Z,18.55
2022-10-09T20:24:10.096Z,20.23
2022-10-09T20:26:48.483Z,12.85
2022-10-09T20:29:31.685Z,15.00
2022-10-09T20:32:07.684Z,14.43
2022-10-09T20:34:35.910Z,15.60
2022-10-09T20:37:11.666Z,15.48
2022-10-09T20:39:39.999Z,16.13
2022-10-09T20:42:17.430Z,15.75
2022-10-09T20:44:50.369Z,12.32
2022-10-09T20:47:26.185Z,18.83
2022-10-09T20:49:54.249Z,15.13
2022-10-09T20:52:28.576Z,14.65
2022-10-09T20:55:02.838Z,15.32
2022-10-09T20:57:32.638Z,14.75
2022-10-09T21:00:01.238Z,18.92
2022-10-09T21:02:35.256Z,15.00
2022-10-09T21:05:04.977Z,12.55
2022-10-09T21:07:36.963Z,14.93
2022-10-09T21:10:07.258Z,15.10
2022-10-09T21:12:37.379Z,11.93
2022-10-09T21:15:06.879Z,16.73
2022-10-09T21:17:35.187Z,15.93
2022-10-09T21:20:03.347Z,15.25
2022-10-09T21:22:34.753Z,10.95
2022-10-09T21:25:02.874Z,14.13
2022-10-09T21:27:33.793Z,16.33
2022-10-09T21:30:03.205Z,15.40
2022-10-09T21:32:31.176Z,33.15
2022-10-09T21:34:59.193Z,19.17
2022-10-09T21:37:27.163Z,14.80
2022-10-09T21:39:55.175Z,10.13
2022-10-09T21:42:23.476Z,13.07
2022-10-09T21:44:52.068Z,12.25
2022-10-09T21:47:34.433Z,10.98
2022-10-09T21:50:02.655Z,13.10
2022-10-09T21:52:32.632Z,14.75
2022-10-09T21:55:08.245Z,14.15
2022-10-09T21:57:40.303Z,13.98
2022-10-09T22:00:16.530Z,13.77
2022-10-09T22:02:46.039Z,13.35
2022-10-09T22:05:17.695Z,13.80
2022-10-09T22:07:51.635Z,12.48
2022-10-09T22:10:27.595Z,13.70
2022-10-09T22:12:55.956Z,13.43
2022-10-09T22:15:24.557Z,16.60
2022-10-09T22:17:54.269Z,13.52
2022-10-09T22:20:22.524Z,15.48
2022-10-09T22:22:51.172Z,14.50
2022-10-09T22:25:19.702Z,12.15
2022-10-09T22:27:53.877Z,14.25
2022-10-09T22:30:21.984Z,13.82
2022-10-09T22:32:50.491Z,12.48
2022-10-09T22:35:20.202Z,14.77
2022-10-09T22:37:51.095Z,14.25
2022-10-09T22:40:22.070Z,17.05
2022-10-09T22:42:50.337Z,15.70
2022-10-09T22:45:18.689Z,14.38
2022-10-09T22:47:48.389Z,16.13
2022-10-09T22:50:16.571Z,18.42
2022-10-09T22:52:48.250Z,16.70
2022-10-09T22:55:16.681Z,23.45
2022-10-09T22:57:44.852Z,19.13
2022-10-09T23:00:14.550Z,17.75
2022-10-09T23:02:44.966Z,19.27
2022-10-09T23:05:13.096Z,18.15
2022-10-09T23:07:41.418Z,18.17
2022-10-09T23:10:12.677Z,20.50
2022-10-09T23:12:40.955Z,22.23
2022-10-09T23:15:09.870Z,21.70
2022-10-09T23:17:38.339Z,19.98
2022-10-09T23:20:10.283Z,25.52
2022-10-09T23:22:39.689Z,21.02
2022-10-09T23:25:12.499Z,22.70
2022-10-09T23:27:40.504Z,19.33
2022-10-09T23:30:12.849Z,19.10
2022-10-09T23:32:40.948Z,23.23
2022-10-09T23:35:12.060Z,19.60
2022-10-09T23:37:42.495Z,20.05
2022-10-09T23:40:12.390Z,20.42
2022-10-09T23:42:40.461Z,18.42
2022-10-09T23:45:10.067Z,20.67
2022-10-09T23:47:38.146Z,17.08
2022-10-09T23:50:08.615Z,18.45
2022-10-09T23:52:36.986Z,16.20
2022-10-09T23:55:08.047Z,17.88
2022-10-09T23:57:37.637Z,18.58
